createdAt,value
2017-08-19T00:08:57.000Z,22.26
2017-08-19T00:18:57.000Z,22.23
2017-08-19T00:28:57.000Z,22.19
2017-08-19T00:38:57.000Z,22.15
2017-08-19T00:48:57.000Z,22.12
2017-08-19T00:58:58.000Z,22.07
2017-08-19T01:08:58.000Z,22.03
2017-08-19T01:18:58.000Z,21.99
2017-08-19T01:28:58.000Z,21.97
2017-08-19T01:38:58.000Z,21.93
2017-08-19T01:48:58.000Z,21.9
2017-08-19T01:58:58.000Z,21.86
2017-08-19T02:08:58.000Z,21.84
2017-08-19T02:18:58.000Z,21.8
2017-08-19T02:28:58.000Z,21.77
2017-08-19T02:38:58.000Z,21.73
2017-08-19T02:48:58.000Z,21.68
2017-08-19T02:58:58.000Z,21.65
2017-08-19T03:08:58.000Z,21.61
2017-08-19T03:18:58.000Z,21.57
2017-08-19T03:28:58.000Z,21.54
2017-08-19T03:38:58.000Z,21.5
2017-08-19T03:48:58.000Z,21.47
2017-08-19T03:58:58.000Z,21.44
2017-08-19T04:08:58.000Z,21.41
2017-08-19T04:18:58.000Z,21.37
2017-08-19T04:28:58.000Z,21.34
2017-08-19T04:38:58.000Z,21.32
2017-08-19T04:48:58.000Z,21.3
2017-08-19T04:58:58.000Z,21.28
2017-08-19T05:08:58.000Z,21.26
2017-08-19T05:18:58.000Z,21.25
2017-08-19T05:28:58.000Z,21.24
2017-08-19T05:38:58.000Z,21.23
2017-08-19T05:48:58.000Z,21.22
2017-08-19T05:58:58.000Z,21.23
2017-08-19T06:08:58.000Z,21.23
2017-08-19T06:18:58.000Z,21.25
2017-08-19T06:28:58.000Z,21.27
2017-08-19T06:38:58.000Z,21.34
2017-08-19T06:48:58.000Z,21.37
2017-08-19T06:58:58.000Z,21.42
2017-08-19T07:08:58.000Z,21.44
2017-08-19T07:18:58.000Z,21.46
2017-08-19T07:28:58.000Z,21.47
2017-08-19T07:38:58.000Z,21.45
2017-08-19T07:48:58.000Z,21.44
2017-08-19T07:58:58.000Z,21.51
2017-08-19T08:08:58.000Z,21.57
2017-08-19T08:18:58.000Z,21.57
2017-08-19T08:28:58.000Z,21.56
2017-08-19T08:38:58.000Z,21.53
2017-08-19T08:48:58.000Z,21.55
2017-08-19T08:58:58.000Z,21.58
2017-08-19T09:08:58.000Z,21.77
2017-08-19T09:18:59.000Z,21.79
2017-08-19T09:28:59.000Z,21.76
2017-08-19T09:38:59.000Z,21.7
2017-08-19T09:48:59.000Z,21.77
2017-08-19T09:58:59.000Z,21.88
2017-08-19T10:08:59.000Z,22.01
2017-08-19T10:18:59.000Z,22.21
2017-08-19T10:28:59.000Z,22.18
2017-08-19T10:38:59.000Z,22.33
2017-08-19T10:48:59.000Z,22.37
2017-08-19T10:58:59.000Z,22.3
2017-08-19T11:08:59.000Z,22.36
2017-08-19T11:18:59.000Z,22.42
2017-08-19T11:28:59.000Z,22.51
2017-08-19T11:38:59.000Z,22.7
2017-08-19T11:48:59.000Z,22.77
2017-08-19T11:58:59.000Z,22.82
2017-08-19T12:08:59.000Z,22.83
2017-08-19T12:18:59.000Z,22.75
2017-08-19T12:28:59.000Z,22.92
2017-08-19T12:38:59.000Z,22.75
2017-08-19T12:48:59.000Z,22.69
2017-08-19T12:58:59.000Z,22.58
2017-08-19T13:08:59.000Z,22.6
2017-08-19T13:18:59.000Z,22.63
2017-08-19T13:28:59.000Z,22.6
2017-08-19T13:38:59.000Z,22.69
2017-08-19T13:48:59.000Z,22.78
2017-08-19T13:58:59.000Z,22.57
2017-08-19T14:08:59.000Z,22.52
2017-08-19T14:18:59.000Z,22.62
2017-08-19T14:28:59.000Z,22.79
2017-08-19T14:38:59.000Z,22.64
2017-08-19T14:48:59.000Z,22.59
2017-08-19T14:58:59.000Z,22.67
2017-08-19T15:08:59.000Z,22.67
2017-08-19T15:18:59.000Z,22.68
2017-08-19T15:28:59.000Z,22.6
2017-08-19T15:38:59.000Z,22.62
2017-08-19T15:48:59.000Z,22.61
2017-08-19T15:58:59.000Z,22.58
2017-08-19T16:08:59.000Z,22.56
2017-08-19T16:18:59.000Z,22.56
2017-08-19T16:28:59.000Z,22.55
2017-08-19T16:48:59.000Z,22.59
2017-08-19T16:58:59.000Z,22.51
2017-08-19T17:09:00.000Z,22.46
2017-08-19T17:19:00.000Z,22.48
2017-08-19T17:48:59.000Z,22.52
2017-08-19T17:59:00.000Z,22.54
